createdAt,value
2023-03-08T00:02:20.977Z,3.82
2023-03-08T00:04:57.409Z,3.85
2023-03-08T00:07:29.910Z,3.55
2023-03-08T00:10:02.407Z,3.34
2023-03-08T00:12:37.506Z,3.50
2023-03-08T00:15:11.422Z,3.70
2023-03-08T00:17:44.130Z,3.72
2023-03-08T00:20:17.043Z,3.64
2023-03-08T00:22:49.439Z,3.79
2023-03-08T00:25:21.975Z,3.74
2023-03-08T00:27:54.543Z,3.63
2023-03-08T00:30:27.354Z,3.52
2023-03-08T00:33:00.823Z,3.65
2023-03-08T00:35:33.237Z,3.66
2023-03-08T00:38:05.701Z,3.80
2023-03-08T00:40:38.967Z,3.70
2023-03-08T00:43:11.447Z,3.73
2023-03-08T00:45:43.992Z,3.87
2023-03-08T00:48:16.826Z,3.89
2023-03-08T00:50:51.406Z,4.03
2023-03-08T00:53:23.954Z,3.64
2023-03-08T00:55:57.795Z,3.63
2023-03-08T00:58:31.697Z,3.77
2023-03-08T01:01:04.750Z,3.86
2023-03-08T01:03:37.731Z,3.88
2023-03-08T01:06:15.703Z,3.46
2023-03-08T01:08:48.169Z,3.59
2023-03-08T01:11:23.017Z,3.66
2023-03-08T01:13:55.060Z,3.59
2023-03-08T01:16:30.799Z,3.73
2023-03-08T01:19:06.307Z,3.65
2023-03-08T01:21:39.776Z,3.56
2023-03-08T01:24:12.289Z,3.76
2023-03-08T01:26:44.731Z,3.81
2023-03-08T01:29:17.218Z,3.88
2023-03-08T01:31:50.130Z,3.95
2023-03-08T01:34:23.315Z,3.87
2023-03-08T01:36:55.807Z,3.82
2023-03-08T01:39:28.269Z,3.98
2023-03-08T01:42:00.859Z,3.95
2023-03-08T01:44:52.311Z,4.01
2023-03-08T01:47:27.372Z,3.99
2023-03-08T01:50:25.980Z,3.94
2023-03-08T01:52:59.979Z,3.95
2023-03-08T01:55:32.654Z,3.67
2023-03-08T01:58:09.082Z,3.75
2023-03-08T02:00:42.435Z,3.74
2023-03-08T02:03:15.425Z,3.92
2023-03-08T02:05:51.874Z,3.78
2023-03-08T02:08:27.044Z,3.84
2023-03-08T02:11:01.561Z,3.73
2023-03-08T02:13:34.361Z,3.73
2023-03-08T02:16:11.249Z,3.77
2023-03-08T02:18:54.846Z,3.72
2023-03-08T02:21:28.694Z,3.52
2023-03-08T02:24:07.244Z,3.43
2023-03-08T02:26:40.127Z,3.46
2023-03-08T02:29:12.493Z,3.46
2023-03-08T02:31:44.918Z,3.59
2023-03-08T02:34:17.518Z,3.52
2023-03-08T02:36:49.923Z,3.52
2023-03-08T02:39:23.621Z,3.47
2023-03-08T02:41:56.425Z,3.45
2023-03-08T02:44:28.812Z,3.70
2023-03-08T02:47:01.299Z,3.62
2023-03-08T02:49:35.211Z,3.62
2023-03-08T02:52:08.971Z,3.66
2023-03-08T02:54:41.331Z,3.56
2023-03-08T02:57:14.045Z,3.60
2023-03-08T02:59:46.497Z,3.46
2023-03-08T03:02:20.249Z,3.48
2023-03-08T03:04:52.903Z,3.43
2023-03-08T03:07:25.237Z,3.51
2023-03-08T03:09:57.962Z,3.45
2023-03-08T03:12:31.263Z,3.66
2023-03-08T03:15:03.853Z,3.50
2023-03-08T03:17:38.155Z,3.49
2023-03-08T03:20:13.182Z,3.44
2023-03-08T03:22:47.257Z,3.54
2023-03-08T03:25:20.244Z,3.41
2023-03-08T03:27:53.976Z,3.29
2023-03-08T03:30:26.498Z,3.29
2023-03-08T03:32:59.321Z,3.32
2023-03-08T03:35:34.402Z,3.25
2023-03-08T03:38:06.947Z,3.14
2023-03-08T03:40:39.524Z,3.24
2023-03-08T03:43:12.255Z,3.15
2023-03-08T03:45:44.639Z,3.14
2023-03-08T03:48:17.414Z,3.18
2023-03-08T03:50:58.246Z,3.05
2023-03-08T03:53:32.823Z,3.10
2023-03-08T03:56:07.928Z,3.25
2023-03-08T03:58:40.427Z,3.28
2023-03-08T04:01:16.426Z,3.33
2023-03-08T04:03:49.301Z,3.32
2023-03-08T04:06:29.332Z,3.18
2023-03-08T04:09:04.316Z,3.12
2023-03-08T04:11:40.103Z,3.11
2023-03-08T04:14:14.306Z,3.12
2023-03-08T04:16:47.037Z,3.05
2023-03-08T04:19:26.489Z,3.10
2023-03-08T04:21:59.869Z,3.20
2023-03-08T04:24:35.161Z,3.26
2023-03-08T04:27:09.957Z,3.44
2023-03-08T04:29:42.648Z,3.28
2023-03-08T04:32:15.386Z,3.15
2023-03-08T04:34:51.972Z,3.22
2023-03-08T04:37:26.009Z,3.28
2023-03-08T04:40:01.107Z,3.11
2023-03-08T04:42:35.808Z,3.17
2023-03-08T04:45:11.741Z,3.29
2023-03-08T04:47:45.136Z,3.41
2023-03-08T04:50:18.494Z,3.40
2023-03-08T04:52:54.582Z,3.38
2023-03-08T04:55:27.338Z,3.37
2023-03-08T04:58:00.190Z,3.46
2023-03-08T05:00:34.242Z,3.44
2023-03-08T05:03:07.439Z,3.47
2023-03-08T05:05:40.057Z,3.61
2023-03-08T05:08:12.679Z,3.30
2023-03-08T05:10:50.934Z,3.36
2023-03-08T05:13:26.499Z,3.45
2023-03-08T05:15:59.078Z,3.46
2023-03-08T05:18:34.011Z,3.51
2023-03-08T05:21:11.296Z,3.34
2023-03-08T05:23:45.252Z,3.18
2023-03-08T05:26:19.926Z,3.05
2023-03-08T05:28:57.368Z,3.33
2023-03-08T05:31:35.197Z,3.49
2023-03-08T05:34:13.067Z,3.71
2023-03-08T05:36:47.509Z,3.56
2023-03-08T05:39:22.292Z,3.51
2023-03-08T05:42:00.995Z,3.49
2023-03-08T05:44:40.183Z,3.50
2023-03-08T05:47:13.443Z,3.48
2023-03-08T05:49:46.251Z,3.57
2023-03-08T05:52:23.200Z,3.30
2023-03-08T05:54:57.778Z,3.58
2023-03-08T05:57:30.783Z,3.66
2023-03-08T06:00:04.784Z,3.57
2023-03-08T06:02:48.229Z,3.47
2023-03-08T06:05:25.577Z,3.72
2023-03-08T06:08:01.343Z,3.78
2023-03-08T06:10:34.503Z,3.76
2023-03-08T06:13:09.305Z,3.67
2023-03-08T06:15:42.104Z,3.74
2023-03-08T06:18:14.813Z,3.74
2023-03-08T06:20:55.817Z,3.71
2023-03-08T06:23:29.448Z,3.78
2023-03-08T06:26:04.744Z,3.81
2023-03-08T06:28:40.420Z,3.57
2023-03-08T06:31:16.158Z,3.76
2023-03-08T06:33:51.272Z,4.00
2023-03-08T06:36:26.788Z,4.02
2023-03-08T06:39:01.117Z,3.83
2023-03-08T06:41:34.315Z,4.08
2023-03-08T06:44:08.942Z,4.23
2023-03-08T06:46:41.636Z,4.27
2023-03-08T06:49:14.225Z,4.29
2023-03-08T06:51:46.786Z,4.18
2023-03-08T06:54:19.875Z,4.15
2023-03-08T06:56:55.470Z,4.04
2023-03-08T06:59:28.876Z,4.17
2023-03-08T07:02:01.467Z,4.28
2023-03-08T07:04:33.993Z,4.02
2023-03-08T07:07:07.999Z,3.81
2023-03-08T07:09:40.761Z,4.06
2023-03-08T07:12:13.238Z,4.06
2023-03-08T07:14:45.667Z,4.22
2023-03-08T07:17:19.726Z,4.35
2023-03-08T07:19:52.147Z,4.32
2023-03-08T07:22:24.574Z,4.41
2023-03-08T07:24:57.030Z,4.54
2023-03-08T07:27:29.848Z,4.53
2023-03-08T07:30:02.505Z,4.59
2023-03-08T07:32:34.902Z,4.47
2023-03-08T07:35:09.566Z,4.54
2023-03-08T07:37:42.576Z,4.47
2023-03-08T07:40:19.482Z,4.52
2023-03-08T07:42:51.913Z,4.61
2023-03-08T07:46:03.251Z,4.64
2023-03-08T07:48:35.937Z,4.70
2023-03-08T07:51:10.690Z,4.55
2023-03-08T07:53:43.104Z,4.46
2023-03-08T07:56:16.081Z,4.48
2023-03-08T07:58:48.800Z,4.61
2023-03-08T08:01:21.679Z,4.52
2023-03-08T08:03:54.105Z,4.67
2023-03-08T08:06:26.753Z,4.78
2023-03-08T08:08:59.515Z,4.85
2023-03-08T08:11:32.169Z,4.83
2023-03-08T08:14:05.368Z,4.83
2023-03-08T08:16:38.675Z,4.88
2023-03-08T08:19:14.702Z,4.93
2023-03-08T08:21:48.045Z,4.68
2023-03-08T08:24:20.903Z,4.61
2023-03-08T08:26:53.416Z,4.59
2023-03-08T08:29:26.127Z,4.52
2023-03-08T08:31:59.569Z,4.59
2023-03-08T08:34:32.080Z,4.32
2023-03-08T08:37:05.085Z,4.33
2023-03-08T08:39:37.809Z,4.20
2023-03-08T08:42:10.686Z,4.20
2023-03-08T08:44:43.192Z,4.28
2023-03-08T08:47:15.624Z,4.52
2023-03-08T08:49:48.230Z,4.80
2023-03-08T08:52:20.676Z,4.68
2023-03-08T08:54:55.045Z,4.57
2023-03-08T08:57:27.770Z,4.67
2023-03-08T09:00:00.494Z,4.59
2023-03-08T09:02:33.373Z,4.68
2023-03-08T09:05:06.168Z,4.61
2023-03-08T09:07:39.348Z,4.56
2023-03-08T09:10:13.881Z,4.53
2023-03-08T09:12:46.429Z,4.57
2023-03-08T09:15:19.206Z,4.62
2023-03-08T09:17:52.129Z,4.56
2023-03-08T09:20:25.587Z,4.79
2023-03-08T09:22:58.222Z,4.75
2023-03-08T09:25:30.528Z,4.88
2023-03-08T09:28:03.118Z,5.01
2023-03-08T09:30:35.655Z,5.02
2023-03-08T09:33:08.703Z,5.11
2023-03-08T09:35:41.219Z,5.04
2023-03-08T09:38:13.742Z,4.95
2023-03-08T09:40:57.599Z,5.03
2023-03-08T09:43:41.634Z,5.10
2023-03-08T09:46:17.459Z,5.10
2023-03-08T09:48:52.773Z,5.31
2023-03-08T09:51:29.554Z,5.36
2023-03-08T09:54:06.844Z,5.22
2023-03-08T09:56:43.638Z,5.00
2023-03-08T09:59:20.579Z,5.26
2023-03-08T10:02:03.428Z,5.19
2023-03-08T10:05:05.893Z,5.17
2023-03-08T10:07:50.400Z,5.30
2023-03-08T10:10:42.569Z,5.31
2023-03-08T10:13:32.126Z,5.36
2023-03-08T10:16:17.738Z,5.25
2023-03-08T10:18:57.826Z,5.52
2023-03-08T10:21:32.662Z,5.55
2023-03-08T10:24:06.657Z,5.61
2023-03-08T10:26:39.520Z,5.72
2023-03-08T10:29:14.820Z,5.70
2023-03-08T10:31:48.203Z,6.05
2023-03-08T10:34:25.160Z,6.12
2023-03-08T10:37:01.970Z,6.20
2023-03-08T10:39:36.358Z,6.19
2023-03-08T10:42:17.870Z,6.23
2023-03-08T10:44:59.598Z,6.35
2023-03-08T10:47:33.602Z,6.46
2023-03-08T10:50:16.682Z,6.54
2023-03-08T10:52:51.237Z,6.67
2023-03-08T10:55:25.627Z,6.35
2023-03-08T10:58:00.051Z,6.41
2023-03-08T11:00:33.677Z,6.54
2023-03-08T11:03:15.445Z,6.50
2023-03-08T11:05:59.772Z,6.32
2023-03-08T11:08:35.665Z,6.47
2023-03-08T11:11:11.638Z,6.49
2023-03-08T11:13:47.130Z,6.68
2023-03-08T11:16:32.378Z,6.57
2023-03-08T11:19:25.355Z,6.44
2023-03-08T11:22:04.997Z,6.51
2023-03-08T11:24:53.245Z,6.41
2023-03-08T11:27:38.875Z,6.61
2023-03-08T11:30:25.537Z,6.80
2023-03-08T11:33:18.526Z,6.56
2023-03-08T11:35:58.300Z,6.65
2023-03-08T11:38:33.038Z,6.48
2023-03-08T11:41:20.688Z,6.65
2023-03-08T11:44:16.759Z,6.69
2023-03-08T11:47:01.978Z,6.68
2023-03-08T11:49:49.420Z,6.73
2023-03-08T11:52:34.012Z,6.82
2023-03-08T11:55:33.150Z,6.73
2023-03-08T11:58:13.133Z,6.73
2023-03-08T12:00:47.929Z,6.83
2023-03-08T12:03:24.681Z,6.80
2023-03-08T12:06:00.948Z,6.78
2023-03-08T12:08:40.109Z,6.84
2023-03-08T12:11:18.285Z,6.88
2023-03-08T12:13:54.493Z,7.12
2023-03-08T12:16:32.048Z,7.10
2023-03-08T12:19:15.637Z,7.11
2023-03-08T12:21:57.768Z,7.04
2023-03-08T12:24:47.960Z,7.15
2023-03-08T12:27:27.485Z,7.07
2023-03-08T12:30:06.258Z,7.03
2023-03-08T12:32:41.069Z,6.99
2023-03-08T12:35:29.537Z,6.97
2023-03-08T12:38:07.718Z,6.99
2023-03-08T12:40:44.432Z,7.02
2023-03-08T12:43:30.087Z,7.00
2023-03-08T12:46:09.300Z,7.21
2023-03-08T12:48:51.244Z,7.18
2023-03-08T12:51:34.162Z,7.27
2023-03-08T12:54:07.677Z,7.24
2023-03-08T12:56:51.573Z,6.97
2023-03-08T12:59:41.447Z,7.12
2023-03-08T13:02:35.872Z,7.33
2023-03-08T13:05:21.095Z,7.46
2023-03-08T13:08:17.362Z,7.43
2023-03-08T13:11:04.308Z,7.58
2023-03-08T13:13:45.383Z,7.57
2023-03-08T13:16:33.929Z,7.61
2023-03-08T13:19:23.841Z,7.62
2023-03-08T13:22:05.556Z,7.70
2023-03-08T13:24:45.414Z,7.60
2023-03-08T13:27:34.568Z,7.69
2023-03-08T13:30:25.003Z,7.57
2023-03-08T13:32:58.042Z,7.57
2023-03-08T13:35:30.604Z,7.53
2023-03-08T13:38:03.384Z,7.45
2023-03-08T13:40:36.163Z,7.59
2023-03-08T13:43:15.466Z,7.49
2023-03-08T13:45:52.240Z,7.47
2023-03-08T13:48:29.568Z,7.53
2023-03-08T13:51:03.071Z,7.51
2023-03-08T13:53:40.457Z,7.54
2023-03-08T13:56:24.448Z,7.47
2023-03-08T13:58:59.032Z,7.42
2023-03-08T14:01:30.003Z,7.37
2023-03-08T14:04:12.003Z,7.32
2023-03-08T14:06:52.934Z,7.46
2023-03-08T14:09:26.581Z,7.42
2023-03-08T14:12:04.532Z,7.24
2023-03-08T14:14:40.927Z,7.24
2023-03-08T14:17:22.691Z,7.34
2023-03-08T14:20:01.124Z,7.36
2023-03-08T14:22:40.119Z,7.39
2023-03-08T14:25:25.452Z,7.38
2023-03-08T14:27:58.626Z,7.25
2023-03-08T14:30:32.504Z,7.37
2023-03-08T14:33:20.233Z,7.41
2023-03-08T14:36:00.119Z,7.32
2023-03-08T14:38:34.636Z,7.33
2023-03-08T14:41:08.307Z,7.31
2023-03-08T14:43:41.073Z,7.35
2023-03-08T14:46:22.055Z,7.31
2023-03-08T14:49:03.264Z,6.74
2023-03-08T14:51:42.390Z,6.93
2023-03-08T14:54:30.443Z,6.93
2023-03-08T14:57:09.799Z,6.89
2023-03-08T14:59:44.307Z,6.92
2023-03-08T15:02:18.996Z,6.74
2023-03-08T15:04:50.112Z,6.83
2023-03-08T15:07:25.047Z,6.90
2023-03-08T15:09:57.496Z,6.85
2023-03-08T15:12:30.449Z,6.77
2023-03-08T15:15:03.116Z,6.78
2023-03-08T15:17:35.790Z,6.84
2023-03-08T15:20:10.652Z,6.85
2023-03-08T15:22:44.310Z,6.77
2023-03-08T15:25:20.934Z,6.83
2023-03-08T15:27:54.794Z,6.77
2023-03-08T15:30:29.227Z,6.67
2023-03-08T15:33:02.761Z,6.61
2023-03-08T15:35:35.416Z,6.70
2023-03-08T15:38:08.152Z,6.68
2023-03-08T15:40:40.808Z,6.59
2023-03-08T15:43:13.650Z,6.62
2023-03-08T15:45:46.844Z,6.62
2023-03-08T15:48:20.462Z,6.46
2023-03-08T15:50:53.094Z,6.51
2023-03-08T15:53:34.924Z,6.54
2023-03-08T15:56:08.202Z,6.42
2023-03-08T15:58:40.790Z,6.51
2023-03-08T16:01:13.626Z,6.50
2023-03-08T16:03:46.784Z,6.51
2023-03-08T16:06:19.587Z,6.49
2023-03-08T16:08:52.236Z,6.46
2023-03-08T16:11:24.991Z,6.45
2023-03-08T16:13:57.671Z,6.42
2023-03-08T16:16:44.456Z,6.42
2023-03-08T16:19:18.320Z,6.41
2023-03-08T16:21:52.846Z,6.40
2023-03-08T16:24:25.519Z,6.39
2023-03-08T16:26:59.434Z,6.37
2023-03-08T16:29:32.467Z,6.37
2023-03-08T16:32:05.285Z,6.35
2023-03-08T16:34:37.976Z,6.33
2023-03-08T16:37:10.593Z,6.32
2023-03-08T16:39:43.048Z,6.30
2023-03-08T16:42:16.668Z,6.30
2023-03-08T16:44:53.566Z,6.28
2023-03-08T16:47:27.249Z,6.27
2023-03-08T16:50:00.719Z,6.25
2023-03-08T16:52:33.626Z,6.23
2023-03-08T16:55:07.093Z,6.19
2023-03-08T16:57:40.286Z,6.18
2023-03-08T17:00:15.680Z,6.16
2023-03-08T17:02:48.195Z,6.13
2023-03-08T17:05:21.175Z,6.13
2023-03-08T17:07:54.071Z,6.09
2023-03-08T17:10:26.657Z,6.09
2023-03-08T17:12:59.201Z,6.07
2023-03-08T17:15:31.803Z,6.03
2023-03-08T17:18:04.326Z,6.02
2023-03-08T17:20:39.517Z,6.01
2023-03-08T17:23:13.634Z,5.98
2023-03-08T17:25:46.473Z,5.95
2023-03-08T17:28:19.310Z,5.94
2023-03-08T17:30:52.607Z,5.93
2023-03-08T17:33:26.130Z,5.90
2023-03-08T17:36:02.142Z,5.89
2023-03-08T17:38:35.610Z,5.89
2023-03-08T17:41:10.841Z,5.86
2023-03-08T17:43:43.913Z,5.84
2023-03-08T17:46:18.569Z,5.81
2023-03-08T17:48:50.561Z,5.79
2023-03-08T17:51:25.765Z,5.79
2023-03-08T17:54:01.290Z,5.62
2023-03-08T17:56:36.703Z,5.73
2023-03-08T17:59:09.643Z,5.74
2023-03-08T18:01:42.864Z,5.74
2023-03-08T18:04:15.899Z,5.74
2023-03-08T18:06:48.919Z,5.64
2023-03-08T18:09:21.563Z,5.73
2023-03-08T18:11:54.302Z,5.71
2023-03-08T18:14:39.296Z,5.70
2023-03-08T18:17:14.329Z,5.70
2023-03-08T18:19:47.575Z,5.61
2023-03-08T18:22:20.555Z,5.57
2023-03-08T18:24:53.536Z,5.68
2023-03-08T18:27:26.067Z,5.66
2023-03-08T18:29:59.018Z,5.65
2023-03-08T18:32:31.954Z,5.67
2023-03-08T18:35:04.951Z,5.62
2023-03-08T18:37:38.100Z,5.64
2023-03-08T18:40:15.564Z,5.59
2023-03-08T18:42:48.394Z,5.58
2023-03-08T18:45:21.048Z,5.57
2023-03-08T18:47:53.857Z,5.57
2023-03-08T18:50:27.784Z,5.56
2023-03-08T18:53:01.074Z,5.46
2023-03-08T18:55:33.952Z,5.45
2023-03-08T18:58:06.767Z,5.50
2023-03-08T19:00:39.354Z,5.52
2023-03-08T19:03:11.970Z,5.45
2023-03-08T19:05:44.878Z,5.44
2023-03-08T19:08:17.317Z,5.48
2023-03-08T19:10:50.256Z,5.48
2023-03-08T19:13:23.357Z,5.48
2023-03-08T19:15:56.092Z,5.47
2023-03-08T19:18:28.846Z,5.46
2023-03-08T19:21:01.666Z,5.44
2023-03-08T19:23:34.437Z,5.45
2023-03-08T19:26:32.535Z,5.45
2023-03-08T19:29:07.866Z,5.47
2023-03-08T19:31:42.106Z,5.49
2023-03-08T19:34:15.770Z,5.47
2023-03-08T19:36:49.760Z,5.44
2023-03-08T19:39:24.777Z,5.43
2023-03-08T19:41:59.812Z,5.44
2023-03-08T19:44:33.204Z,5.44
2023-03-08T19:47:06.396Z,5.44
2023-03-08T19:49:40.782Z,5.41
2023-03-08T19:52:14.038Z,5.47
2023-03-08T19:54:46.782Z,5.35
2023-03-08T19:57:20.220Z,5.40
2023-03-08T19:59:53.083Z,5.42
2023-03-08T20:02:25.701Z,5.43
2023-03-08T20:04:58.357Z,5.46
2023-03-08T20:07:31.649Z,5.48
2023-03-08T20:10:15.447Z,5.45
2023-03-08T20:12:47.956Z,5.44
2023-03-08T20:15:20.818Z,5.44
2023-03-08T20:17:53.874Z,5.45
2023-03-08T20:20:26.331Z,5.43
2023-03-08T20:22:59.248Z,5.41
2023-03-08T20:25:32.183Z,5.39
2023-03-08T20:28:06.030Z,5.43
2023-03-08T20:30:38.821Z,5.44
2023-03-08T20:33:12.592Z,5.44
2023-03-08T20:35:47.162Z,5.45
2023-03-08T20:38:18.224Z,5.44
2023-03-08T20:41:01.492Z,5.40
2023-03-08T20:43:34.678Z,5.39
2023-03-08T20:46:09.484Z,5.43
2023-03-08T20:48:43.888Z,5.44
2023-03-08T20:51:19.636Z,5.44
2023-03-08T20:53:54.215Z,5.45
2023-03-08T20:56:28.335Z,5.44
2023-03-08T20:59:01.764Z,5.43
2023-03-08T21:01:35.459Z,5.42
2023-03-08T21:04:09.550Z,5.39
2023-03-08T21:06:42.337Z,5.41
2023-03-08T21:09:15.778Z,5.38
2023-03-08T21:11:48.287Z,5.28
2023-03-08T21:14:20.935Z,5.37
2023-03-08T21:16:53.351Z,5.39
2023-03-08T21:19:26.041Z,5.41
2023-03-08T21:21:58.479Z,5.40
2023-03-08T21:24:31.820Z,5.41
2023-03-08T21:27:07.241Z,5.38
2023-03-08T21:29:40.078Z,5.39
2023-03-08T21:32:13.611Z,5.39
2023-03-08T21:34:47.737Z,5.41
2023-03-08T21:37:20.771Z,5.36
2023-03-08T21:39:54.850Z,5.43
2023-03-08T21:42:26.190Z,5.43
2023-03-08T21:44:59.365Z,5.44
2023-03-08T21:47:31.851Z,5.40
2023-03-08T21:50:04.545Z,5.31
2023-03-08T21:52:37.209Z,5.42
2023-03-08T21:55:10.852Z,5.42
2023-03-08T21:57:43.527Z,5.41
2023-03-08T22:00:18.985Z,5.39
2023-03-08T22:02:54.945Z,5.40
2023-03-08T22:05:29.446Z,5.33
2023-03-08T22:08:02.033Z,5.41
2023-03-08T22:10:34.682Z,5.44
2023-03-08T22:13:07.054Z,5.45
2023-03-08T22:15:39.838Z,5.47
2023-03-08T22:18:12.561Z,5.47
2023-03-08T22:20:46.069Z,5.44
2023-03-08T22:23:18.787Z,5.43
2023-03-08T22:25:51.586Z,5.43
2023-03-08T22:28:24.299Z,5.45
2023-03-08T22:30:57.133Z,5.39
2023-03-08T22:33:32.741Z,5.42
2023-03-08T22:36:07.772Z,5.43
2023-03-08T22:38:41.096Z,5.43
2023-03-08T22:41:15.875Z,5.43
2023-03-08T22:43:49.065Z,5.36
2023-03-08T22:46:23.589Z,5.46
2023-03-08T22:48:56.976Z,5.36
2023-03-08T22:51:29.765Z,5.46
2023-03-08T22:54:04.120Z,5.48
2023-03-08T22:56:39.576Z,5.47
2023-03-08T22:59:13.224Z,5.46
2023-03-08T23:01:46.006Z,5.50
2023-03-08T23:04:18.467Z,5.47
2023-03-08T23:06:51.692Z,5.47
2023-03-08T23:09:24.569Z,5.49
2023-03-08T23:11:58.239Z,5.43
2023-03-08T23:14:30.806Z,5.43
2023-03-08T23:17:03.808Z,5.42
2023-03-08T23:19:37.530Z,5.38
2023-03-08T23:22:10.018Z,5.37
2023-03-08T23:24:42.464Z,5.38
2023-03-08T23:27:15.061Z,5.26
2023-03-08T23:29:48.089Z,5.25
2023-03-08T23:32:21.364Z,5.24
2023-03-08T23:34:53.772Z,5.27
2023-03-08T23:37:26.553Z,5.32
2023-03-08T23:39:59.591Z,5.34
2023-03-08T23:42:32.350Z,5.39
2023-03-08T23:45:05.066Z,5.37
2023-03-08T23:47:38.515Z,5.41
2023-03-08T23:50:12.752Z,5.41
2023-03-08T23:52:45.251Z,5.34
2023-03-08T23:55:17.753Z,5.34
2023-03-08T23:57:52.872Z,5.38
